createdAt,value
2023-04-21T00:00:51.575Z,63.09
2023-04-21T00:03:53.138Z,63.04
2023-04-21T00:06:55.288Z,63.00
2023-04-21T00:09:56.812Z,63.32
2023-04-21T00:12:58.355Z,63.56
2023-04-21T00:15:59.888Z,63.35
2023-04-21T00:19:02.383Z,63.66
2023-04-21T00:22:04.583Z,63.31
2023-04-21T00:25:06.860Z,62.84
2023-04-21T00:28:08.378Z,63.33
2023-04-21T00:31:12.415Z,63.15
2023-04-21T00:34:13.983Z,63.10
2023-04-21T00:37:15.427Z,63.32
2023-04-21T00:40:17.023Z,62.92
2023-04-21T00:43:18.557Z,63.37
2023-04-21T00:46:20.014Z,63.38
2023-04-21T00:49:24.727Z,63.37
2023-04-21T00:52:27.059Z,63.45
2023-04-21T00:55:31.220Z,63.48
2023-04-21T00:58:33.869Z,62.57
2023-04-21T01:01:36.436Z,62.06
2023-04-21T01:04:40.097Z,61.62
2023-04-21T01:07:41.929Z,60.79
2023-04-21T01:10:43.432Z,60.38
2023-04-21T01:13:44.928Z,60.44
2023-04-21T01:16:46.742Z,60.18
2023-04-21T01:19:49.041Z,60.44
2023-04-21T01:22:51.644Z,59.56
2023-04-21T01:25:53.525Z,59.80
2023-04-21T01:28:56.806Z,59.65
2023-04-21T01:31:58.470Z,59.56
2023-04-21T01:35:00.426Z,59.06
2023-04-21T01:38:02.097Z,59.37
2023-04-21T01:41:03.704Z,59.59
2023-04-21T01:44:05.380Z,59.32
2023-04-21T01:47:07.069Z,59.26
2023-04-21T01:50:08.841Z,59.14
2023-04-21T01:53:10.437Z,59.04
2023-04-21T01:56:14.848Z,58.32
2023-04-21T01:59:16.516Z,58.09
2023-04-21T02:02:18.212Z,57.98
2023-04-21T02:05:19.800Z,58.13
2023-04-21T02:08:21.312Z,57.95
2023-04-21T02:11:25.023Z,58.05
2023-04-21T02:14:26.479Z,58.25
2023-04-21T02:17:28.118Z,58.04
2023-04-21T02:20:32.224Z,57.96
2023-04-21T02:23:33.679Z,58.42
2023-04-21T02:26:35.363Z,57.58
2023-04-21T02:29:36.945Z,58.10
2023-04-21T02:32:38.604Z,58.01
2023-04-21T02:35:40.177Z,57.62
2023-04-21T02:38:41.629Z,58.18
2023-04-21T02:41:44.997Z,58.29
2023-04-21T02:44:46.521Z,58.05
2023-04-21T02:47:48.108Z,57.87
2023-04-21T02:50:50.770Z,58.03
2023-04-21T02:53:52.774Z,58.05
2023-04-21T02:56:54.288Z,57.98
2023-04-21T02:59:55.811Z,57.77
2023-04-21T03:02:57.566Z,58.18
2023-04-21T03:06:03.589Z,58.29
2023-04-21T03:09:05.551Z,57.83
2023-04-21T03:12:07.578Z,57.89
2023-04-21T03:15:11.469Z,58.14
2023-04-21T03:18:13.208Z,58.39
2023-04-21T03:21:14.797Z,58.15
2023-04-21T03:24:16.384Z,58.46
2023-04-21T03:27:17.952Z,58.59
2023-04-21T03:30:19.882Z,58.32
2023-04-21T03:33:21.424Z,58.81
2023-04-21T03:36:23.013Z,58.67
2023-04-21T03:39:24.848Z,58.55
2023-04-21T03:42:27.697Z,58.87
2023-04-21T03:45:31.486Z,58.71
2023-04-21T03:48:34.310Z,58.72
2023-04-21T03:51:35.878Z,58.50
2023-04-21T03:54:37.479Z,58.79
2023-04-21T03:57:40.975Z,59.23
2023-04-21T04:00:42.738Z,58.97
2023-04-21T04:03:44.401Z,59.33
2023-04-21T04:06:45.943Z,58.99
2023-04-21T04:09:47.527Z,58.77
2023-04-21T04:12:49.179Z,59.17
2023-04-21T04:15:50.697Z,58.99
2023-04-21T04:18:52.187Z,58.99
2023-04-21T04:21:53.629Z,59.04
2023-04-21T04:24:55.658Z,59.39
2023-04-21T04:27:57.397Z,59.40
2023-04-21T04:31:00.620Z,58.94
2023-04-21T04:34:02.194Z,59.00
2023-04-21T04:37:04.277Z,59.21
2023-04-21T04:40:06.865Z,59.43
2023-04-21T04:43:10.544Z,59.70
2023-04-21T04:46:12.979Z,59.92
2023-04-21T04:49:15.410Z,59.40
2023-04-21T04:52:16.906Z,59.61
2023-04-21T04:55:18.812Z,59.41
2023-04-21T04:58:20.526Z,59.62
2023-04-21T05:01:22.427Z,59.57
2023-04-21T05:04:24.356Z,59.38
2023-04-21T05:07:26.440Z,59.19
2023-04-21T05:10:27.944Z,58.61
2023-04-21T05:13:29.481Z,58.99
2023-04-21T05:16:30.945Z,58.81
2023-04-21T05:19:35.974Z,58.58
2023-04-21T05:22:38.409Z,58.65
2023-04-21T05:25:40.304Z,58.09
2023-04-21T05:28:41.794Z,57.94
2023-04-21T05:31:43.283Z,58.21
2023-04-21T05:34:44.854Z,58.26
2023-04-21T05:37:46.412Z,58.64
2023-04-21T05:40:56.814Z,58.81
2023-04-21T05:43:58.906Z,58.94
2023-04-21T05:47:00.473Z,58.78
2023-04-21T05:50:01.904Z,58.14
2023-04-21T05:53:03.389Z,57.58
2023-04-21T05:56:05.946Z,57.66
2023-04-21T05:59:07.467Z,57.63
2023-04-21T06:02:09.055Z,57.75
2023-04-21T06:05:10.863Z,57.65
2023-04-21T06:08:12.624Z,57.50
2023-04-21T06:11:14.171Z,57.34
2023-04-21T06:14:15.717Z,56.58
2023-04-21T06:17:17.988Z,56.83
2023-04-21T06:20:22.744Z,57.11
2023-04-21T06:23:24.280Z,56.55
2023-04-21T06:26:25.901Z,55.89
2023-04-21T06:29:27.411Z,56.22
2023-04-21T06:32:28.875Z,56.31
2023-04-21T06:35:30.914Z,58.80
2023-04-21T06:38:32.547Z,59.19
2023-04-21T06:41:34.023Z,59.73
2023-04-21T06:44:35.553Z,59.53
2023-04-21T06:47:37.759Z,60.05
2023-04-21T06:50:39.265Z,59.83
2023-04-21T06:53:40.833Z,59.93
2023-04-21T06:56:42.993Z,59.70
2023-04-21T06:59:45.050Z,59.86
2023-04-21T07:02:46.552Z,59.75
2023-04-21T07:05:48.112Z,60.02
2023-04-21T07:08:49.594Z,60.19
2023-04-21T07:11:51.165Z,59.70
2023-04-21T07:14:52.675Z,59.92
2023-04-21T07:17:54.289Z,59.61
2023-04-21T07:20:55.736Z,59.72
2023-04-21T07:23:58.477Z,59.22
2023-04-21T07:26:59.942Z,58.77
2023-04-21T07:30:01.427Z,58.03
2023-04-21T07:33:03.045Z,58.32
2023-04-21T07:36:04.924Z,57.99
2023-04-21T07:39:06.616Z,57.63
2023-04-21T07:42:08.354Z,57.69
2023-04-21T07:45:10.309Z,57.74
2023-04-21T07:48:11.881Z,58.59
2023-04-21T07:51:13.429Z,57.84
2023-04-21T07:54:14.901Z,58.38
2023-04-21T07:57:16.416Z,57.48
2023-04-21T08:00:18.192Z,57.04
2023-04-21T08:03:21.358Z,58.01
2023-04-21T08:06:24.418Z,57.67
2023-04-21T08:09:26.459Z,57.61
2023-04-21T08:12:27.986Z,56.96
2023-04-21T08:15:29.490Z,57.63
2023-04-21T08:18:31.361Z,57.10
2023-04-21T08:21:33.434Z,56.89
2023-04-21T08:24:34.989Z,56.67
2023-04-21T08:27:40.097Z,56.59
2023-04-21T08:30:42.394Z,56.38
2023-04-21T08:33:58.058Z,56.28
2023-04-21T08:37:03.206Z,56.34
2023-04-21T08:40:06.111Z,56.27
2023-04-21T08:43:08.782Z,56.47
2023-04-21T08:46:12.754Z,56.08
2023-04-21T08:49:19.630Z,55.88
2023-04-21T08:52:21.310Z,55.38
2023-04-21T08:55:31.226Z,55.32
2023-04-21T08:58:32.922Z,55.18
2023-04-21T09:02:17.935Z,55.58
2023-04-21T09:05:27.182Z,55.17
2023-04-21T09:08:30.395Z,55.00
2023-04-21T09:11:34.581Z,55.18
2023-04-21T09:14:36.037Z,55.55
2023-04-21T09:17:38.617Z,55.25
2023-04-21T09:20:40.272Z,55.30
2023-04-21T09:23:48.107Z,54.87
2023-04-21T09:26:53.340Z,54.44
2023-04-21T09:29:55.705Z,54.73
2023-04-21T09:32:58.703Z,55.27
2023-04-21T09:36:00.923Z,55.21
2023-04-21T09:39:28.947Z,54.82
2023-04-21T09:42:30.254Z,54.61
2023-04-21T09:45:39.750Z,54.37
2023-04-21T09:48:44.334Z,53.98
2023-04-21T09:55:01.674Z,54.19
2023-04-21T09:58:07.393Z,53.53
2023-04-21T10:01:09.820Z,53.50
2023-04-21T10:04:12.021Z,53.05
2023-04-21T10:07:13.976Z,52.63
2023-04-21T10:10:35.913Z,52.74
2023-04-21T10:13:37.989Z,52.70
2023-04-21T10:16:39.682Z,51.91
2023-04-21T10:19:52.931Z,51.86
2023-04-21T10:22:58.511Z,51.56
2023-04-21T10:26:22.207Z,51.48
2023-04-21T10:29:32.876Z,51.13
2023-04-21T10:32:43.144Z,51.75
2023-04-21T10:36:01.391Z,52.23
2023-04-21T10:39:04.242Z,51.29
2023-04-21T10:42:20.916Z,50.83
2023-04-21T10:45:25.812Z,51.02
2023-04-21T10:48:27.335Z,50.34
2023-04-21T10:51:32.796Z,50.21
2023-04-21T10:54:42.024Z,49.95
2023-04-21T10:57:45.419Z,49.66
2023-04-21T11:00:47.507Z,49.69
2023-04-21T11:03:49.215Z,49.50
2023-04-21T11:07:32.936Z,49.13
2023-04-21T11:10:48.704Z,43.87
2023-04-21T11:13:53.054Z,43.75
2023-04-21T11:16:54.562Z,43.27
2023-04-21T11:19:56.552Z,44.02
2023-04-21T11:22:58.005Z,43.30
2023-04-21T11:25:59.737Z,42.22
2023-04-21T11:29:02.405Z,42.15
2023-04-21T11:32:06.505Z,41.95
2023-04-21T11:35:08.255Z,41.62
2023-04-21T11:38:10.601Z,41.99
2023-04-21T11:41:12.197Z,41.61
2023-04-21T11:44:30.048Z,41.93
2023-04-21T11:47:31.609Z,42.02
2023-04-21T11:50:33.529Z,42.28
2023-04-21T11:53:35.035Z,41.89
2023-04-21T11:56:41.618Z,40.78
2023-04-21T11:59:45.875Z,40.93
2023-04-21T12:02:55.712Z,40.54
2023-04-21T12:05:58.366Z,40.24
2023-04-21T12:09:02.189Z,42.89
2023-04-21T12:12:05.388Z,43.56
2023-04-21T12:15:08.249Z,43.26
2023-04-21T12:18:14.319Z,43.24
2023-04-21T12:21:16.556Z,42.71
2023-04-21T12:24:18.055Z,42.61
2023-04-21T12:27:20.566Z,42.53
2023-04-21T12:30:22.077Z,43.54
2023-04-21T12:33:23.729Z,44.15
2023-04-21T12:36:27.749Z,44.40
2023-04-21T12:39:30.868Z,44.71
2023-04-21T12:42:33.841Z,45.23
2023-04-21T12:45:36.746Z,45.26
2023-04-21T12:48:38.324Z,45.69
2023-04-21T12:51:39.858Z,44.88
2023-04-21T12:54:41.828Z,44.28
2023-04-21T12:57:43.750Z,43.94
2023-04-21T13:00:45.337Z,43.80
2023-04-21T13:03:47.100Z,43.80
2023-04-21T13:06:48.639Z,44.02
2023-04-21T13:09:50.686Z,44.99
2023-04-21T13:12:52.204Z,45.31
2023-04-21T13:15:54.216Z,45.45
2023-04-21T13:18:55.795Z,44.46
2023-04-21T13:21:57.292Z,44.13
2023-04-21T13:24:58.974Z,43.53
2023-04-21T13:28:00.956Z,43.51
2023-04-21T13:31:02.600Z,43.63
2023-04-21T13:34:04.136Z,43.53
2023-04-21T13:37:06.267Z,43.33
2023-04-21T13:40:10.068Z,43.45
2023-04-21T13:43:12.075Z,43.91
2023-04-21T13:46:14.600Z,44.01
2023-04-21T13:49:16.342Z,43.90
2023-04-21T13:52:17.833Z,44.03
2023-04-21T13:55:20.793Z,44.10
2023-04-21T13:58:22.591Z,44.30
2023-04-21T14:01:24.159Z,44.26
2023-04-21T14:04:26.993Z,43.53
2023-04-21T14:07:28.740Z,43.20
2023-04-21T14:10:31.066Z,43.15
2023-04-21T14:13:37.827Z,42.62
2023-04-21T14:16:43.753Z,41.68
2023-04-21T14:19:45.398Z,41.07
2023-04-21T14:22:46.876Z,40.98
2023-04-21T14:25:48.414Z,41.66
2023-04-21T14:28:50.924Z,42.11
2023-04-21T14:31:53.819Z,41.91
2023-04-21T14:34:58.375Z,42.25
2023-04-21T14:37:59.942Z,42.55
2023-04-21T14:41:01.838Z,43.12
2023-04-21T14:44:03.921Z,44.16
2023-04-21T14:47:09.770Z,44.83
2023-04-21T14:50:12.090Z,45.54
2023-04-21T14:53:13.746Z,45.84
2023-04-21T14:56:15.921Z,45.85
2023-04-21T14:59:17.416Z,45.55
2023-04-21T15:02:20.580Z,45.11
2023-04-21T15:05:22.501Z,45.01
2023-04-21T15:08:24.141Z,44.90
2023-04-21T15:11:25.676Z,44.62
2023-04-21T15:14:27.255Z,44.50
2023-04-21T15:17:28.814Z,44.21
2023-04-21T15:20:41.078Z,44.58
2023-04-21T15:23:45.704Z,44.16
2023-04-21T15:26:47.284Z,44.17
2023-04-21T15:29:49.318Z,44.71
2023-04-21T15:32:50.869Z,45.54
2023-04-21T15:35:52.445Z,45.59
2023-04-21T15:38:53.916Z,45.28
2023-04-21T15:41:55.935Z,45.42
2023-04-21T15:44:57.516Z,45.25
2023-04-21T15:47:59.081Z,45.38
2023-04-21T15:51:02.015Z,45.40
2023-04-21T15:54:04.476Z,44.89
2023-04-21T15:57:06.180Z,44.12
2023-04-21T16:00:10.185Z,43.21
2023-04-21T16:03:12.348Z,43.73
2023-04-21T16:06:13.986Z,43.79
2023-04-21T16:09:17.035Z,43.07
2023-04-21T16:12:18.838Z,42.42
2023-04-21T16:15:24.409Z,41.79
2023-04-21T16:18:26.581Z,41.96
2023-04-21T16:21:28.137Z,42.23
2023-04-21T16:24:29.738Z,42.77
2023-04-21T16:27:31.222Z,43.23
2023-04-21T16:30:35.059Z,43.40
2023-04-21T16:33:36.567Z,44.29
2023-04-21T16:36:38.077Z,45.23
2023-04-21T16:39:39.584Z,45.61
2023-04-21T16:42:41.235Z,45.80
2023-04-21T16:45:43.056Z,45.65
2023-04-21T16:48:44.553Z,45.70
2023-04-21T16:51:46.163Z,46.12
2023-04-21T16:54:47.710Z,46.43
2023-04-21T16:57:49.306Z,46.87
2023-04-21T17:00:51.457Z,47.27
2023-04-21T17:08:14.541Z,49.60
2023-04-21T17:11:16.102Z,49.99
2023-04-21T17:14:17.535Z,50.43
2023-04-21T17:17:19.089Z,50.75
2023-04-21T17:20:20.582Z,51.27
2023-04-21T17:23:22.176Z,51.31
2023-04-21T17:26:23.938Z,51.21
2023-04-21T17:29:27.984Z,51.73
2023-04-21T17:32:31.266Z,51.29
2023-04-21T17:35:34.943Z,51.73
2023-04-21T17:38:36.577Z,51.72
2023-04-21T17:41:38.080Z,51.86
2023-04-21T17:44:41.227Z,52.57
2023-04-21T17:47:43.192Z,53.37
2023-04-21T17:50:44.932Z,53.46
2023-04-21T17:53:46.762Z,53.40
2023-04-21T17:56:48.351Z,53.30
2023-04-21T17:59:49.976Z,53.59
2023-04-21T18:02:51.497Z,53.48
2023-04-21T18:05:53.754Z,53.39
2023-04-21T18:08:55.946Z,53.68
2023-04-21T18:11:58.315Z,53.61
2023-04-21T18:15:00.962Z,54.05
2023-04-21T18:18:02.541Z,54.82
2023-04-21T18:21:04.286Z,55.29
2023-04-21T18:24:06.120Z,55.62
2023-04-21T18:27:07.925Z,55.83
2023-04-21T18:30:09.966Z,56.08
2023-04-21T18:33:11.942Z,56.10
2023-04-21T18:36:13.548Z,56.39
2023-04-21T18:39:15.061Z,56.60
2023-04-21T18:42:16.636Z,56.86
2023-04-21T18:45:18.512Z,56.85
2023-04-21T18:48:20.057Z,57.15
2023-04-21T18:51:21.595Z,57.20
2023-04-21T18:54:23.114Z,57.32
2023-04-21T18:57:25.764Z,57.45
2023-04-21T19:00:27.262Z,57.22
2023-04-21T19:03:29.080Z,56.49
2023-04-21T19:06:30.758Z,56.19
2023-04-21T19:09:32.209Z,56.24
2023-04-21T19:12:34.237Z,56.40
2023-04-21T19:15:35.855Z,56.53
2023-04-21T19:18:37.670Z,56.82
2023-04-21T19:21:39.362Z,56.47
2023-04-21T19:24:40.924Z,56.82
2023-04-21T19:27:42.808Z,56.71
2023-04-21T19:30:44.277Z,56.68
2023-04-21T19:33:46.080Z,56.71
2023-04-21T19:36:49.296Z,56.53
2023-04-21T19:39:50.874Z,56.89
2023-04-21T19:42:52.852Z,56.91
2023-04-21T19:45:54.493Z,56.84
2023-04-21T19:48:56.222Z,57.28
2023-04-21T19:51:57.826Z,56.68
2023-04-21T19:54:59.338Z,56.57
2023-04-21T19:58:00.829Z,56.53
2023-04-21T20:01:02.354Z,56.55
2023-04-21T20:04:04.429Z,56.26
2023-04-21T20:07:06.415Z,56.19
2023-04-21T20:10:08.923Z,56.41
2023-04-21T20:13:13.791Z,56.56
2023-04-21T20:16:17.386Z,56.45
2023-04-21T20:19:22.747Z,56.45
2023-04-21T20:22:25.813Z,56.05
2023-04-21T20:25:28.895Z,55.30
2023-04-21T20:28:30.559Z,54.84
2023-04-21T20:31:33.163Z,55.31
2023-04-21T20:34:36.231Z,55.55
2023-04-21T20:37:38.122Z,55.90
2023-04-21T20:40:39.760Z,56.38
2023-04-21T20:43:41.322Z,56.53
2023-04-21T20:46:43.133Z,56.75
2023-04-21T20:49:44.838Z,56.87
2023-04-21T20:52:46.363Z,56.46
2023-04-21T20:55:48.563Z,56.46
2023-04-21T20:58:50.648Z,56.38
2023-04-21T21:01:52.120Z,56.26
2023-04-21T21:04:53.601Z,55.93
2023-04-21T21:07:56.936Z,56.34
2023-04-21T21:10:58.423Z,56.72
2023-04-21T21:13:59.974Z,56.78
2023-04-21T21:17:02.859Z,56.21
2023-04-21T21:20:05.075Z,56.24
2023-04-21T21:23:07.512Z,56.48
2023-04-21T21:26:09.202Z,55.88
2023-04-21T21:29:10.800Z,55.98
2023-04-21T21:32:12.455Z,56.23
2023-04-21T21:35:13.973Z,56.35
2023-04-21T21:38:15.866Z,56.41
2023-04-21T21:41:19.711Z,56.41
2023-04-21T21:44:21.432Z,56.49
2023-04-21T21:47:23.063Z,56.58
2023-04-21T21:50:24.673Z,56.44
2023-04-21T21:53:26.153Z,56.47
2023-04-21T21:56:27.739Z,56.42
2023-04-21T21:59:29.325Z,56.31
2023-04-21T22:02:31.140Z,56.36
2023-04-21T22:05:32.838Z,56.53
2023-04-21T22:08:34.430Z,56.16
2023-04-21T22:11:37.059Z,56.10
2023-04-21T22:14:38.619Z,55.39
2023-04-21T22:17:40.154Z,55.26
2023-04-21T22:20:41.730Z,55.40
2023-04-21T22:23:43.930Z,55.54
2023-04-21T22:26:45.512Z,55.42
2023-04-21T22:29:46.989Z,55.76
2023-04-21T22:32:48.662Z,55.84
2023-04-21T22:35:50.831Z,56.25
2023-04-21T22:38:52.324Z,55.82
2023-04-21T22:41:53.850Z,55.77
2023-04-21T22:44:55.530Z,55.37
2023-04-21T22:47:57.098Z,55.46
2023-04-21T22:50:59.597Z,54.98
2023-04-21T22:54:01.368Z,55.16
2023-04-21T22:57:02.890Z,54.94
2023-04-21T23:00:06.413Z,55.28
2023-04-21T23:03:08.194Z,55.46
2023-04-21T23:06:09.980Z,55.55
2023-04-21T23:09:11.610Z,55.44
2023-04-21T23:12:13.147Z,55.50
2023-04-21T23:15:14.637Z,55.22
2023-04-21T23:18:16.132Z,55.30
2023-04-21T23:21:17.650Z,55.50
2023-04-21T23:24:19.137Z,55.48
2023-04-21T23:27:20.822Z,55.65
2023-04-21T23:30:22.322Z,55.71
2023-04-21T23:33:23.980Z,55.85
2023-04-21T23:36:27.037Z,56.08
2023-04-21T23:39:28.539Z,56.11
2023-04-21T23:42:30.092Z,56.49
2023-04-21T23:45:31.570Z,56.26
2023-04-21T23:48:34.210Z,56.08
2023-04-21T23:51:36.757Z,56.10
2023-04-21T23:54:38.175Z,55.96
2023-04-21T23:57:39.807Z,56.08
